Time;durP1;ratioP1;P1;durP2;ratioP2;P2;SDS_P1;SDS_P2;PMS_P1;PMS_P2;Temp;Humidity;BMP_temperature;BMP_pressure;BME280_temperature;BME280_humidity;BME280_pressure;Samples;Min_cycle;Max_cycle;Signal;HPM_P1;HPM_P2
2022/05/10 00:01:37;;;;;;;11.05;10.15;;;;;;;11.53;100.00;99358.16;4999980;28;20040;-58
2022/05/10 00:04:05;;;;;;;10.98;9.90;;;;;;;11.54;100.00;99361.56;4998015;28;20056;-57
2022/05/10 00:06:37;;;;;;;11.43;10.27;;;;;;;11.65;100.00;99365.72;5004622;28;20033;-59
2022/05/10 00:09:03;;;;;;;10.93;9.38;;;;;;;11.61;100.00;99373.47;5003335;28;20083;-59
2022/05/10 00:11:29;;;;;;;11.93;10.40;;;;;;;11.53;100.00;99363.28;4998691;28;20033;-59
2022/05/10 00:13:54;;;;;;;10.55;9.65;;;;;;;11.51;100.00;99362.44;5000754;28;20052;-57
2022/05/10 00:16:20;;;;;;;10.80;9.48;;;;;;;11.45;100.00;99360.81;5003279;28;20049;-56
2022/05/10 00:18:46;;;;;;;11.63;10.43;;;;;;;11.54;100.00;99365.00;5002493;28;20087;-58
2022/05/10 00:21:15;;;;;;;10.65;9.65;;;;;;;11.68;100.00;99363.09;4999253;28;20519;-58
2022/05/10 00:23:40;;;;;;;11.43;10.25;;;;;;;11.85;100.00;99356.06;5000626;28;20038;-57
2022/05/10 00:26:06;;;;;;;10.93;9.90;;;;;;;11.82;100.00;99361.25;5003779;28;20119;-57
2022/05/10 00:28:31;;;;;;;10.77;9.80;;;;;;;11.79;100.00;99361.31;4999741;28;20741;-59
2022/05/10 00:30:57;;;;;;;11.13;9.85;;;;;;;11.69;100.00;99357.09;4998659;28;20463;-58
2022/05/10 00:33:26;;;;;;;10.98;9.93;;;;;;;11.65;100.00;99363.13;4999325;28;20041;-58
2022/05/10 00:35:52;;;;;;;13.93;9.85;;;;;;;11.55;100.00;99363.25;5002329;28;20030;-58
2022/05/10 00:38:21;;;;;;;12.82;10.43;;;;;;;11.55;100.00;99361.53;5000534;28;20065;-58
2022/05/10 00:40:46;;;;;;;11.30;10.18;;;;;;;11.55;100.00;99364.09;5000391;28;20666;-59
2022/05/10 00:43:22;;;;;;;11.13;10.07;;;;;;;11.57;100.00;99356.38;5003305;28;20620;-58
2022/05/10 00:45:51;;;;;;;13.63;10.13;;;;;;;11.46;100.00;99353.91;5002212;28;20127;-58
2022/05/10 00:48:44;;;;;;;10.55;9.55;;;;;;;11.43;100.00;99356.53;4998525;28;20072;-59
2022/05/10 00:51:47;;;;;;;10.90;9.80;;;;;;;11.30;100.00;99353.25;4999840;28;20499;-58
2022/05/10 00:54:34;;;;;;;11.57;10.57;;;;;;;11.35;100.00;99358.34;5001313;28;20033;-58
2022/05/10 00:57:17;;;;;;;10.32;9.27;;;;;;;11.38;100.00;99348.03;4998754;28;20421;-58
2022/05/10 00:59:51;;;;;;;10.68;9.60;;;;;;;11.48;100.00;99335.94;4996576;28;20492;-59
2022/05/10 01:02:38;;;;;;;10.15;9.20;;;;;;;11.60;100.00;99335.81;5001530;28;20040;-60
2022/05/10 01:05:12;;;;;;;10.32;9.25;;;;;;;11.59;100.00;99332.38;5001067;28;20388;-59
2022/05/10 01:07:49;;;;;;;9.85;8.98;;;;;;;11.67;100.00;99330.56;5000328;28;20065;-59
2022/05/10 01:10:25;;;;;;;9.70;8.73;;;;;;;11.64;100.00;99328.03;4998806;28;20085;-58
2022/05/10 01:13:16;;;;;;;9.50;8.55;;;;;;;11.70;100.00;99327.13;5003551;28;20138;-58
2022/05/10 01:15:49;;;;;;;10.05;8.75;;;;;;;11.73;100.00;99325.41;4998329;28;20081;-59
2022/05/10 01:18:15;;;;;;;9.65;8.38;;;;;;;11.60;100.00;99317.81;4996412;28;20041;-57
2022/05/10 01:20:44;;;;;;;9.45;8.65;;;;;;;11.48;100.00;99321.38;4999641;28;20037;-60
2022/05/10 01:23:40;;;;;;;10.60;9.70;;;;;;;11.35;100.00;99314.69;5001345;28;20503;-59
2022/05/10 01:26:22;;;;;;;11.18;9.77;;;;;;;11.32;100.00;99312.16;4999037;28;20562;-58
2022/05/10 01:29:02;;;;;;;9.98;8.93;;;;;;;11.31;100.00;99303.63;4998644;28;20096;-59
2022/05/10 01:31:35;;;;;;;10.60;9.25;;;;;;;11.31;100.00;99306.19;5001735;28;20029;-58
2022/05/10 01:34:07;;;;;;;9.57;8.70;;;;;;;11.35;100.00;99312.13;4997353;28;20041;-59
2022/05/10 01:36:41;;;;;;;9.57;8.68;;;;;;;11.29;100.00;99305.34;4997837;28;20034;-57
2022/05/10 01:39:24;;;;;;;10.60;9.50;;;;;;;11.23;100.00;99307.97;5000850;28;20496;-59
2022/05/10 01:41:58;;;;;;;10.07;8.93;;;;;;;11.23;100.00;99302.00;5002534;28;20069;-57
2022/05/10 01:44:49;;;;;;;10.80;8.45;;;;;;;11.23;100.00;99302.00;4998496;28;20045;-58
2022/05/10 01:47:29;;;;;;;10.15;9.30;;;;;;;11.18;100.00;99294.34;4996930;28;20038;-58
2022/05/10 01:50:22;;;;;;;10.07;9.15;;;;;;;11.25;100.00;99289.97;5000338;28;20077;-59
2022/05/10 01:53:28;;;;;;;10.00;8.90;;;;;;;11.24;100.00;99299.44;4999017;28;20541;-55
2022/05/10 01:56:01;;;;;;;9.35;7.85;;;;;;;11.17;100.00;99295.22;4906524;29;20056;-58
2022/05/10 01:58:32;;;;;;;11.00;9.90;;;;;;;11.14;100.00;99292.69;4910675;29;20482;-59
2022/05/10 02:01:00;;;;;;;10.52;9.50;;;;;;;11.06;100.00;99285.94;4911011;29;20048;-58
2022/05/10 02:03:34;;;;;;;9.23;8.32;;;;;;;10.93;100.00;99287.75;4907148;29;20570;-58
2022/05/10 02:06:12;;;;;;;11.98;8.95;;;;;;;10.85;100.00;99289.56;4906421;29;20040;-59
2022/05/10 02:08:51;;;;;;;10.15;9.25;;;;;;;10.88;100.00;99290.38;4910162;29;20042;-58
2022/05/10 02:11:17;;;;;;;10.27;9.32;;;;;;;10.89;100.00;99286.94;4905853;29;20054;-58
2022/05/10 02:13:56;;;;;;;12.00;10.60;;;;;;;10.90;100.00;99287.81;4908310;29;20036;-57
2022/05/10 02:16:27;;;;;;;10.88;9.20;;;;;;;10.87;100.00;99288.66;4908982;29;20067;-59
2022/05/10 02:18:57;;;;;;;9.60;8.70;;;;;;;10.95;100.00;99289.44;4910866;29;20131;-54
2022/05/10 02:21:41;;;;;;;9.25;8.35;;;;;;;10.98;100.00;99292.00;4908688;29;20621;-53
2022/05/10 02:24:22;;;;;;;10.05;9.05;;;;;;;11.06;100.00;99298.75;4906007;29;20505;-52
2022/05/10 02:26:52;;;;;;;10.20;9.02;;;;;;;10.92;100.00;99299.75;4909567;29;20100;-49
2022/05/10 02:29:31;;;;;;;11.55;9.23;;;;;;;10.91;100.00;99310.84;4928975;28;20042;-52
2022/05/10 02:34:57;;;;;;;10.05;9.10;;;;;;;10.94;100.00;99305.72;4982147;28;20057;-51
2022/05/10 02:37:22;;;;;;;11.48;8.75;;;;;;;10.80;100.00;99305.00;4981861;28;20061;-53
2022/05/10 02:39:48;;;;;;;9.65;8.75;;;;;;;10.70;100.00;99302.50;4980982;28;20113;-50
2022/05/10 02:42:15;;;;;;;11.45;8.98;;;;;;;10.69;100.00;99300.81;4980395;28;20496;-54
2022/05/10 02:44:41;;;;;;;11.68;9.70;;;;;;;10.69;100.00;99300.81;4981913;28;20027;-55
2022/05/10 02:47:09;;;;;;;9.35;7.95;;;;;;;10.62;100.00;99302.56;4980754;28;20045;-55
2022/05/10 02:49:36;;;;;;;10.65;9.55;;;;;;;10.52;100.00;99295.84;4982232;28;20077;-51
2022/05/10 02:52:03;;;;;;;10.07;9.07;;;;;;;10.46;100.00;99294.16;4979862;28;20153;-55
2022/05/10 02:54:29;;;;;;;10.75;9.40;;;;;;;10.43;100.00;99296.78;4982776;28;20026;-54
2022/05/10 02:56:55;;;;;;;11.73;9.43;;;;;;;10.45;100.00;99299.28;4982036;28;20053;-55
2022/05/10 02:59:25;;;;;;;11.13;9.27;;;;;;;10.38;100.00;99298.50;4981838;28;20030;-53
2022/05/10 03:02:12;;;;;;;10.98;9.88;;;;;;;10.31;100.00;99298.56;4979990;28;20092;-54
2022/05/10 03:04:44;;;;;;;9.50;8.52;;;;;;;10.27;100.00;99296.91;4983951;28;20045;-56
2022/05/10 03:07:11;;;;;;;10.85;8.75;;;;;;;10.24;100.00;99294.34;4997439;28;20031;-54
2022/05/10 03:09:36;;;;;;;10.95;9.88;;;;;;;10.16;100.00;99291.81;4979099;28;20236;-55
2022/05/10 03:12:04;;;;;;;10.93;9.82;;;;;;;10.16;100.00;99296.09;4982144;28;20153;-54
2022/05/10 03:14:30;;;;;;;10.80;9.80;;;;;;;10.10;100.00;99289.25;4983085;28;20079;-56
2022/05/10 03:16:55;;;;;;;11.52;10.38;;;;;;;10.06;100.00;99287.59;4998761;28;20058;-51
2022/05/10 03:19:20;;;;;;;12.23;10.45;;;;;;;10.03;100.00;99285.03;4998839;28;20177;-53
2022/05/10 03:21:46;;;;;;;11.57;9.45;;;;;;;10.00;100.00;99285.06;5000516;28;20145;-54
2022/05/10 03:24:11;;;;;;;12.30;9.70;;;;;;;9.99;100.00;99285.94;5004490;28;20391;-55
2022/05/10 03:26:37;;;;;;;11.57;9.85;;;;;;;9.95;100.00;99290.22;5001894;28;20477;-55
2022/05/10 03:29:03;;;;;;;12.93;9.82;;;;;;;9.92;100.00;99289.41;4999734;28;20037;-56
2022/05/10 03:31:29;;;;;;;11.05;9.43;;;;;;;9.88;100.00;99296.25;5004010;28;20648;-58
2022/05/10 03:36:40;;;;;;;13.55;9.43;;;;;;;9.90;100.00;99293.66;5000473;28;20142;-56
2022/05/10 03:39:06;;;;;;;10.73;9.63;;;;;;;9.89;100.00;99292.81;4997631;28;20154;-55
2022/05/10 03:41:31;;;;;;;11.90;10.70;;;;;;;9.89;100.00;99290.25;5001221;28;20658;-55
2022/05/10 03:43:57;;;;;;;13.13;10.68;;;;;;;9.98;100.00;99291.91;5002617;28;20469;-58
2022/05/10 03:46:23;;;;;;;11.15;10.05;;;;;;;9.97;100.00;99290.22;4998452;28;20038;-57
2022/05/10 03:48:50;;;;;;;10.50;9.50;;;;;;;9.98;100.00;99292.75;4996020;28;20148;-53
2022/05/10 03:51:16;;;;;;;13.75;10.52;;;;;;;10.05;100.00;99294.44;4991413;28;20025;-56
2022/05/10 03:53:41;;;;;;;11.57;10.02;;;;;;;10.07;100.00;99296.97;5002421;28;20415;-57
2022/05/10 03:56:07;;;;;;;11.50;10.30;;;;;;;10.09;100.00;99285.88;4998958;28;20029;-56
2022/05/10 03:58:33;;;;;;;11.52;10.43;;;;;;;10.19;100.00;99288.38;4998528;28;20044;-57
2022/05/10 04:00:58;;;;;;;11.32;10.15;;;;;;;10.28;100.00;99285.75;5003111;28;20574;-55
2022/05/10 04:03:23;;;;;;;10.98;9.70;;;;;;;10.33;100.00;99290.00;5002368;28;20064;-56
2022/05/10 04:05:49;;;;;;;10.43;9.40;;;;;;;10.43;100.00;99290.78;4999070;28;20125;-53
2022/05/10 04:08:14;;;;;;;11.02;9.82;;;;;;;10.56;100.00;99297.53;5000434;28;20267;-53
2022/05/10 04:10:40;;;;;;;11.55;9.85;;;;;;;10.68;100.00;99294.84;5001434;28;20032;-53
2022/05/10 04:13:07;;;;;;;11.50;10.30;;;;;;;10.80;100.00;99296.44;5002734;28;20030;-57
2022/05/10 04:15:32;;;;;;;11.30;10.20;;;;;;;11.00;100.00;99294.53;4998849;28;20054;-55
2022/05/10 04:17:57;;;;;;;10.25;9.25;;;;;;;11.12;100.00;99294.41;5000844;28;20038;-56
2022/05/10 04:20:23;;;;;;;10.85;9.75;;;;;;;11.33;100.00;99301.03;5003240;28;20038;-56
2022/05/10 04:22:48;;;;;;;9.52;8.35;;;;;;;11.47;100.00;99301.72;5000847;28;20106;-54
2022/05/10 04:25:17;;;;;;;9.43;8.15;;;;;;;11.61;100.00;99298.97;4999859;28;20095;-57
2022/05/10 04:27:42;;;;;;;9.48;8.45;;;;;;;11.65;100.00;99296.34;5000979;28;20860;-55
2022/05/10 04:30:09;;;;;;;11.68;8.65;;;;;;;11.75;100.00;99303.09;5002638;28;20040;-56
2022/05/10 04:32:36;;;;;;;9.48;8.65;;;;;;;11.85;100.00;99304.69;5002291;28;20027;-59
2022/05/10 04:35:02;;;;;;;9.52;8.55;;;;;;;11.92;100.00;99315.75;4998413;28;20034;-62
2022/05/10 04:37:27;;;;;;;11.40;8.27;;;;;;;12.05;100.00;99306.16;5000677;28;20056;-60
2022/05/10 04:42:37;;;;;;;10.68;8.13;;;;;;;12.19;100.00;99305.06;4999581;28;20227;-61
2022/05/10 04:45:02;;;;;;;9.07;8.23;;;;;;;12.20;100.00;99306.75;4998936;28;20029;-61
2022/05/10 04:47:28;;;;;;;8.90;8.00;;;;;;;12.36;100.00;99315.94;5001229;28;20120;-60
2022/05/10 04:49:53;;;;;;;8.07;7.38;;;;;;;12.46;100.00;99311.50;5002460;28;20039;-60
2022/05/10 04:52:18;;;;;;;7.75;7.05;;;;;;;12.56;100.00;99309.66;5000393;28;20367;-60
2022/05/10 04:54:44;;;;;;;9.45;8.48;;;;;;;12.60;100.00;99309.56;4998098;28;20174;-55
2022/05/10 04:57:09;;;;;;;8.15;7.45;;;;;;;12.66;100.00;99321.47;4995306;28;20547;-61
2022/05/10 04:59:35;;;;;;;7.65;6.95;;;;;;;12.69;100.00;99319.69;4995271;28;20027;-60
2022/05/10 05:02:00;;;;;;;9.23;7.68;;;;;;;12.78;100.00;99324.69;4998835;28;20042;-62
2022/05/10 05:04:26;;;;;;;8.02;7.28;;;;;;;12.87;100.00;99317.69;4998791;28;20072;-61
2022/05/10 05:06:52;;;;;;;7.63;6.63;;;;;;;12.99;100.00;99331.19;5000812;28;20464;-62
2022/05/10 05:09:18;;;;;;;8.68;7.57;;;;;;;13.06;100.00;99321.66;5000726;28;20030;-61
2022/05/10 05:11:43;;;;;;;9.50;7.70;;;;;;;13.11;100.00;99325.84;4999494;28;20049;-61
2022/05/10 05:14:10;;;;;;;7.35;6.65;;;;;;;13.30;100.00;99325.53;5002039;28;20055;-61
2022/05/10 05:16:36;;;;;;;7.20;6.47;;;;;;;13.43;100.00;99325.28;5000962;28;20054;-61
2022/05/10 05:19:02;;;;;;;7.43;6.72;;;;;;;13.51;100.00;99322.53;5000348;28;20500;-61
2022/05/10 05:21:27;;;;;;;7.85;7.05;;;;;;;13.62;100.00;99324.00;4998854;28;20045;-61
2022/05/10 05:23:53;;;;;;;8.43;7.45;;;;;;;13.60;100.00;99325.78;4999429;28;20034;-62
2022/05/10 05:26:18;;;;;;;8.13;7.38;;;;;;;13.77;100.00;99322.88;5001511;28;20034;-61
2022/05/10 05:28:44;;;;;;;7.47;6.88;;;;;;;13.88;100.00;99323.47;4999026;28;20036;-61
2022/05/10 05:31:13;;;;;;;7.95;7.18;;;;;;;14.04;100.00;99326.59;4997219;28;20575;-60
2022/05/10 05:33:38;;;;;;;7.15;6.45;;;;;;;14.03;100.00;99324.91;4997571;28;20339;-61
2022/05/10 05:36:04;;;;;;;7.60;7.00;;;;;;;14.08;100.00;99328.22;5001219;28;20029;-58
2022/05/10 05:38:30;;;;;;;7.03;6.35;;;;;;;14.25;100.00;99325.28;4999478;28;20037;-58
2022/05/10 05:40:55;;;;;;;6.93;6.32;;;;;;;14.39;100.00;99328.41;4998341;28;20026;-60
2022/05/10 05:43:22;;;;;;;9.85;7.05;;;;;;;14.48;100.00;99326.47;5000000;28;20065;-58
2022/05/10 05:45:49;;;;;;;8.35;7.45;;;;;;;14.63;100.00;99328.69;5002082;28;20049;-61
2022/05/10 05:48:15;;;;;;;8.52;6.55;;;;;;;14.71;100.00;99325.06;4997880;28;20048;-61
2022/05/10 05:50:40;;;;;;;7.45;6.78;;;;;;;14.84;100.00;99327.31;4996310;28;20463;-61
2022/05/10 05:53:06;;;;;;;6.60;6.00;;;;;;;14.91;100.00;99328.00;5000731;28;20041;-53
2022/05/10 05:55:32;;;;;;;8.32;5.85;;;;;;;15.08;100.00;99326.69;5002223;28;20022;-55
2022/05/10 05:58:00;;;;;;;7.90;5.97;;;;;;;15.14;100.00;99320.50;4999131;28;20099;-56
2022/05/10 06:00:27;;;;;;;6.70;5.57;;;;;;;15.29;100.00;99329.56;4998404;28;20026;-54
2022/05/10 06:02:53;;;;;;;6.75;6.15;;;;;;;15.29;100.00;99325.25;5006339;28;20041;-55
2022/05/10 06:05:20;;;;;;;9.60;6.85;;;;;;;15.46;100.00;99319.63;5003500;28;20022;-55
2022/05/10 06:07:45;;;;;;;7.55;6.20;;;;;;;15.56;100.00;99328.00;4993059;28;20081;-54
2022/05/10 06:10:11;;;;;;;8.27;7.20;;;;;;;15.57;100.00;99319.38;4993138;28;20447;-57
2022/05/10 06:12:38;;;;;;;7.22;6.55;;;;;;;15.80;100.00;99322.13;5005575;28;20567;-51
2022/05/10 06:15:09;;;;;;;6.88;6.28;;;;;;;15.97;100.00;99325.09;5003020;28;20455;-56
2022/05/10 06:17:36;;;;;;;6.53;5.93;;;;;;;16.17;100.00;99330.50;5001262;28;20037;-56
2022/05/10 06:20:04;;;;;;;8.07;6.90;;;;;;;16.30;100.00;99333.56;5004033;28;20555;-51
2022/05/10 06:22:30;;;;;;;7.25;6.53;;;;;;;16.41;100.00;99334.09;5004358;28;20037;-58
2022/05/10 06:24:55;;;;;;;6.88;6.25;;;;;;;16.52;100.00;99332.00;5003033;28;20391;-55
2022/05/10 06:27:21;;;;;;;6.10;5.43;;;;;;;16.67;100.00;99336.75;4999828;28;20022;-53
2022/05/10 06:29:46;;;;;;;6.35;5.75;;;;;;;16.76;100.00;99333.00;5002928;28;20568;-57
2022/05/10 06:32:20;;;;;;;6.35;5.85;;;;;;;16.70;100.00;99328.84;5004842;28;20036;-56
2022/05/10 06:34:45;;;;;;;11.20;7.05;;;;;;;16.60;100.00;99329.19;5002981;28;20038;-53
2022/05/10 06:38:16;;;;;;;8.23;6.28;;;;;;;16.66;100.00;99337.63;5000545;28;20522;-54
2022/05/10 06:40:03;;;;;;;8.20;6.28;;;;;;;16.93;100.00;99329.84;5003006;28;20038;-55
2022/05/10 06:42:29;;;;;;;8.50;6.60;;;;;;;16.91;100.00;99335.06;5004459;28;20037;-56
2022/05/10 06:44:54;;;;;;;6.88;6.30;;;;;;;16.73;100.00;99328.75;5001574;28;20061;-56
2022/05/10 06:47:19;;;;;;;6.38;5.88;;;;;;;16.60;100.00;99329.19;4999894;28;20448;-57
2022/05/10 06:49:45;;;;;;;7.00;6.30;;;;;;;16.86;100.00;99330.03;5004975;28;20117;-56
2022/05/10 06:52:10;;;;;;;6.55;5.88;;;;;;;17.18;100.00;99331.56;5004103;28;20472;-54
2022/05/10 06:54:36;;;;;;;6.68;6.15;;;;;;;17.34;100.00;99332.72;5000715;28;20073;-55
2022/05/10 06:57:01;;;;;;;7.75;6.38;;;;;;;17.42;100.00;99327.25;5002164;28;20084;-56
2022/05/10 06:59:27;;;;;;;7.95;6.47;;;;;;;17.48;100.00;99329.66;4991147;28;20100;-55
2022/05/10 07:01:52;;;;;;;7.15;6.65;;;;;;;17.58;100.00;99336.19;5003950;28;20121;-56
2022/05/10 07:04:17;;;;;;;10.68;6.95;;;;;;;17.22;100.00;99327.97;5000535;28;20038;-55
2022/05/10 07:06:43;;;;;;;6.85;6.15;;;;;;;17.13;100.00;99336.06;5000799;28;20038;-56
2022/05/10 07:09:08;;;;;;;7.28;6.57;;;;;;;17.27;100.00;99331.22;5006441;28;20654;-56
2022/05/10 07:11:34;;;;;;;7.60;6.82;;;;;;;17.22;100.00;99329.72;5002604;28;20041;-55
2022/05/10 07:13:59;;;;;;;7.70;7.00;;;;;;;17.53;100.00;99326.84;5000285;28;20030;-58
2022/05/10 07:16:25;;;;;;;9.38;8.13;;;;;;;17.36;100.00;99332.66;5001475;28;20562;-55
2022/05/10 07:18:51;;;;;;;8.63;7.22;;;;;;;17.15;100.00;99323.88;5004041;28;20060;-53
2022/05/10 07:21:16;;;;;;;8.57;7.32;;;;;;;17.52;100.00;99320.00;5000339;28;20034;-57
2022/05/10 07:23:41;;;;;;;8.60;6.68;;;;;;;17.86;100.00;99320.50;4999248;28;20030;-56
2022/05/10 07:26:07;;;;;;;8.02;7.00;;;;;;;17.94;100.00;99321.03;5001210;28;20465;-54
2022/05/10 07:28:33;;;;;;;10.50;7.07;;;;;;;18.04;100.00;99324.97;5001601;28;20050;-54
2022/05/10 07:30:59;;;;;;;8.95;8.15;;;;;;;18.08;100.00;99316.16;5002419;28;20053;-55
2022/05/10 07:33:27;;;;;;;6.72;6.15;;;;;;;18.37;100.00;99322.84;5000257;28;20054;-54
2022/05/10 07:38:39;;;;;;;8.00;7.20;;;;;;;18.64;100.00;99326.94;5002295;28;20080;-58
2022/05/10 07:41:04;;;;;;;7.57;6.50;;;;;;;18.61;99.70;99323.63;4999526;28;20065;-57
2022/05/10 07:43:34;;;;;;;8.73;7.35;;;;;;;18.79;97.19;99320.28;4999193;28;20670;-55
2022/05/10 07:46:00;;;;;;;5.93;5.18;;;;;;;18.89;97.61;99316.38;5006253;28;20499;-57
2022/05/10 07:48:25;;;;;;;7.07;6.45;;;;;;;18.99;100.00;99319.44;5003588;28;20041;-58
2022/05/10 07:50:50;;;;;;;12.13;8.52;;;;;;;18.92;100.00;99321.47;4999858;28;20037;-57
2022/05/10 07:53:16;;;;;;;9.50;6.97;;;;;;;18.89;100.00;99318.97;5000957;28;20025;-57
2022/05/10 07:55:41;;;;;;;11.93;6.93;;;;;;;19.09;100.00;99319.00;5002402;28;20068;-57
2022/05/10 07:58:08;;;;;;;8.65;7.80;;;;;;;19.20;100.00;99315.09;5003853;28;20213;-56
2022/05/10 08:00:35;;;;;;;7.40;6.80;;;;;;;19.28;100.00;99313.00;4998186;28;20574;-59
2022/05/10 08:03:13;;;;;;;8.75;7.68;;;;;;;19.26;100.00;99320.03;5001465;28;20057;-58
2022/05/10 08:05:39;;;;;;;9.32;6.75;;;;;;;19.17;100.00;99316.94;5001276;28;20037;-58
2022/05/10 08:08:05;;;;;;;7.25;5.93;;;;;;;19.34;98.08;99312.75;5000323;28;20346;-58
2022/05/10 08:10:31;;;;;;;7.32;6.55;;;;;;;19.43;95.87;99317.59;4999687;28;20037;-58
2022/05/10 08:12:56;;;;;;;7.43;6.80;;;;;;;19.50;97.20;99313.78;5002427;28;20588;-58
2022/05/10 08:15:21;;;;;;;7.30;6.57;;;;;;;19.61;94.13;99315.00;5000087;28;20055;-59
2022/05/10 08:17:47;;;;;;;9.55;6.57;;;;;;;19.56;93.83;99318.75;5000655;28;20034;-57
2022/05/10 08:20:13;;;;;;;10.02;7.47;;;;;;;19.41;91.99;99315.00;4998763;28;20483;-58
2022/05/10 08:22:38;;;;;;;7.30;6.57;;;;;;;19.68;90.42;99307.78;5002243;28;20040;-57
2022/05/10 08:25:04;;;;;;;8.18;6.07;;;;;;;19.84;92.91;99307.91;5000494;28;20624;-54
2022/05/10 08:27:30;;;;;;;7.10;6.40;;;;;;;20.03;93.62;99311.34;5000639;28;20133;-58
2022/05/10 08:29:56;;;;;;;8.10;6.80;;;;;;;20.12;94.93;99307.47;4996753;28;20040;-56
2022/05/10 08:32:21;;;;;;;7.95;6.85;;;;;;;20.17;85.70;99303.75;5003615;28;20468;-57
2022/05/10 08:34:46;;;;;;;7.88;6.57;;;;;;;20.22;81.52;99309.59;5003598;28;20034;-56
2022/05/10 08:37:12;;;;;;;6.57;5.43;;;;;;;20.11;79.70;99301.44;4999660;28;20056;-58
2022/05/10 08:39:37;;;;;;;8.30;6.72;;;;;;;20.20;79.08;99311.41;4998974;28;20483;-57
2022/05/10 08:42:19;;;;;;;9.07;6.32;;;;;;;20.43;81.79;99302.53;5003933;28;20034;-55
2022/05/10 08:44:51;;;;;;;5.68;5.07;;;;;;;20.47;78.18;99309.28;5002898;28;20391;-56
2022/05/10 08:47:16;;;;;;;7.18;6.43;;;;;;;20.56;80.64;99308.00;4997967;28;20487;-56
2022/05/10 08:49:54;;;;;;;7.60;6.50;;;;;;;20.46;81.76;99294.56;5000548;28;20041;-58
2022/05/10 08:52:24;;;;;;;9.65;6.68;;;;;;;20.58;79.27;99304.38;5002291;28;20923;-55
2022/05/10 08:54:49;;;;;;;6.63;6.00;;;;;;;20.66;80.57;99301.44;4999825;28;20035;-57
2022/05/10 08:57:33;;;;;;;10.13;6.68;;;;;;;20.67;80.44;99309.16;4997309;28;20570;-59
2022/05/10 09:00:06;;;;;;;6.70;6.00;;;;;;;20.68;75.14;99297.81;5000378;28;20403;-60
2022/05/10 09:02:40;;;;;;;6.30;5.70;;;;;;;20.52;72.03;99296.88;5003062;28;20134;-60
2022/05/10 09:05:10;;;;;;;10.73;6.45;;;;;;;20.72;69.11;99293.28;4997881;28;20038;-60
2022/05/10 09:07:44;;;;;;;5.65;5.15;;;;;;;20.83;68.52;99296.22;4997278;28;20547;-59
2022/05/10 09:10:13;;;;;;;9.63;5.63;;;;;;;20.98;77.67;99288.47;5003549;28;20244;-59
2022/05/10 09:12:52;;;;;;;7.35;6.25;;;;;;;20.87;74.42;99282.97;5001022;28;20042;-59
2022/05/10 09:15:19;;;;;;;6.57;5.72;;;;;;;20.90;75.55;99282.81;5000179;28;20081;-61
2022/05/10 09:17:44;;;;;;;10.35;6.72;;;;;;;21.06;75.51;99276.78;4998904;28;20448;-59
2022/05/10 09:20:11;;;;;;;9.68;6.30;;;;;;;21.17;72.54;99282.34;5002682;28;20032;-60
2022/05/10 09:23:06;;;;;;;10.68;5.88;;;;;;;21.22;72.91;99275.13;5001814;28;20054;-59
2022/05/10 09:25:38;;;;;;;11.60;6.57;;;;;;;21.07;73.22;99276.72;4983167;28;20056;-59
2022/05/10 09:28:36;;;;;;;6.47;5.80;;;;;;;21.15;72.62;99272.00;5000890;28;20135;-60
2022/05/10 09:36:56;;;;;;;9.82;5.53;;;;;;;21.47;71.56;99261.66;5003410;28;20044;-60
2022/05/10 09:39:34;;;;;;;6.38;5.60;;;;;;;21.66;72.94;99257.97;5009243;28;20037;-59
2022/05/10 09:42:00;;;;;;;6.22;4.75;;;;;;;21.75;73.13;99252.25;5006521;28;20312;-60
2022/05/10 09:44:27;;;;;;;6.57;4.93;;;;;;;21.78;66.37;99254.69;5004938;28;20377;-61
2022/05/10 09:47:18;;;;;;;7.60;4.88;;;;;;;21.81;64.39;99257.13;5006689;28;20045;-59
2022/05/10 09:49:44;;;;;;;4.60;4.20;;;;;;;22.06;59.21;99254.06;5008458;28;20045;-60
2022/05/10 09:52:30;;;;;;;4.90;4.50;;;;;;;22.03;57.04;99251.59;5004575;28;20473;-61
2022/05/10 09:54:57;;;;;;;5.75;5.32;;;;;;;22.21;58.84;99252.34;5003605;28;20038;-59
2022/05/10 09:57:42;;;;;;;10.43;5.22;;;;;;;22.14;61.61;99240.56;5008354;28;20511;-60
2022/05/10 10:00:13;;;;;;;5.22;4.72;;;;;;;22.43;61.10;99250.19;5007299;28;20025;-60
2022/05/10 10:02:40;;;;;;;5.63;4.45;;;;;;;22.63;60.87;99238.56;5003359;28;20569;-60
2022/05/10 10:05:21;;;;;;;6.03;5.43;;;;;;;22.66;61.27;99244.47;5005166;28;20065;-60
2022/05/10 10:07:53;;;;;;;5.80;5.30;;;;;;;22.77;59.80;99233.41;5009530;28;20037;-61
2022/05/10 10:10:38;;;;;;;6.05;5.53;;;;;;;22.99;67.65;99238.22;5006113;28;20040;-61
2022/05/10 10:13:30;;;;;;;7.13;5.45;;;;;;;22.87;61.07;99228.50;5004428;28;20085;-61
2022/05/10 10:15:56;;;;;;;6.53;4.63;;;;;;;22.53;56.99;99224.38;5007136;28;20046;-60
2022/05/10 10:18:51;;;;;;;5.22;4.82;;;;;;;22.30;57.23;99234.38;5007413;28;20121;-59
2022/05/10 10:21:34;;;;;;;5.85;5.35;;;;;;;22.53;54.75;99233.03;5003669;28;20061;-60
2022/05/10 10:24:01;;;;;;;5.05;4.65;;;;;;;22.50;52.98;99222.75;5006059;28;20087;-61
2022/05/10 10:26:31;;;;;;;5.72;4.75;;;;;;;22.54;52.40;99215.59;5006550;28;20083;-60
2022/05/10 10:29:19;;;;;;;5.05;4.45;;;;;;;22.53;50.88;99214.75;5007394;28;20054;-59
2022/05/10 10:31:53;;;;;;;5.95;4.40;;;;;;;22.73;49.25;99209.22;5003366;28;20041;-59
2022/05/10 10:34:22;;;;;;;4.85;4.40;;;;;;;22.85;50.32;99209.44;5006834;28;20033;-59
2022/05/10 10:37:11;;;;;;;4.70;4.10;;;;;;;22.99;52.08;99202.44;5008245;28;20485;-59
2022/05/10 10:39:41;;;;;;;4.97;4.57;;;;;;;22.88;51.38;99197.00;5004168;28;20581;-60
2022/05/10 10:42:49;;;;;;;6.43;5.13;;;;;;;23.01;51.50;99197.94;5004498;28;20100;-58
2022/05/10 10:45:16;;;;;;;6.15;4.65;;;;;;;23.29;53.88;99194.50;5008593;28;20432;-58
2022/05/10 10:47:44;;;;;;;4.88;4.28;;;;;;;23.15;52.35;99192.72;5004267;28;20093;-59
2022/05/10 10:50:30;;;;;;;7.03;4.28;;;;;;;23.23;48.89;99185.25;5000652;28;20398;-59
2022/05/10 10:52:58;;;;;;;5.43;4.93;;;;;;;23.23;51.96;99189.63;5001629;28;20037;-59
2022/05/10 10:55:39;;;;;;;5.07;4.63;;;;;;;23.47;50.98;99189.91;5003433;28;20139;-58
2022/05/10 10:58:22;;;;;;;4.70;4.30;;;;;;;23.36;47.30;99187.94;5000709;28;20041;-59
2022/05/10 11:01:02;;;;;;;6.00;4.70;;;;;;;23.19;46.00;99185.53;5001243;28;20498;-58
2022/05/10 11:03:37;;;;;;;4.50;4.13;;;;;;;23.12;47.48;99187.69;4998132;28;20045;-57
2022/05/10 11:06:14;;;;;;;5.95;3.75;;;;;;;23.02;46.19;99191.78;5000397;28;20632;-52
2022/05/10 11:09:18;;;;;;;3.75;3.45;;;;;;;22.95;42.85;99185.25;5003337;28;20042;-58
2022/05/10 11:12:07;;;;;;;3.92;3.33;;;;;;;23.31;42.01;99184.78;4989616;28;20045;-55
2022/05/10 11:14:53;;;;;;;5.57;3.95;;;;;;;23.45;42.68;99184.78;5000962;28;20581;-57
2022/05/10 11:17:50;;;;;;;4.20;3.90;;;;;;;23.85;44.02;99190.13;5000617;28;20057;-58
2022/05/10 11:20:31;;;;;;;5.05;3.92;;;;;;;23.97;41.82;99182.31;4999522;28;20050;-57
2022/05/10 11:23:03;;;;;;;4.07;3.78;;;;;;;24.21;43.67;99173.81;5002496;28;20311;-60
2022/05/10 11:25:47;;;;;;;5.53;4.60;;;;;;;24.04;42.50;99180.97;4999818;28;20153;-59
2022/05/10 11:28:49;;;;;;;4.35;3.95;;;;;;;24.34;42.26;99169.44;5000031;28;20064;-60
2022/05/10 11:31:14;;;;;;;4.35;3.95;;;;;;;24.39;42.08;99170.84;5001504;28;20143;-61
2022/05/10 11:34:23;;;;;;;4.57;4.15;;;;;;;24.35;41.51;99160.66;5002012;28;20042;-60
2022/05/10 11:36:51;;;;;;;3.75;3.45;;;;;;;24.33;43.98;99157.28;4981566;28;20042;-60
2022/05/10 11:39:44;;;;;;;3.90;3.70;;;;;;;23.97;42.78;99160.53;4999703;28;20093;-60
2022/05/10 11:42:15;;;;;;;3.70;3.50;;;;;;;24.39;44.72;99156.88;5004778;28;20037;-61
2022/05/10 11:45:06;;;;;;;4.70;4.30;;;;;;;23.99;41.62;99153.38;5003046;28;20536;-60
2022/05/10 11:47:49;;;;;;;4.40;4.07;;;;;;;24.21;41.79;99142.38;4999327;28;20564;-57
2022/05/10 11:51:38;;;;;;;4.72;3.60;;;;;;;24.63;41.40;99143.88;5001799;28;20034;-59
2022/05/10 11:54:00;;;;;;;6.45;4.18;;;;;;;24.66;40.79;99141.03;5001926;28;20598;-60
2022/05/10 11:56:33;;;;;;;12.88;4.95;;;;;;;24.70;39.93;99127.63;4998193;28;20575;-61
2022/05/10 11:59:23;;;;;;;4.03;3.72;;;;;;;24.88;43.28;99131.63;4999274;28;20476;-61
2022/05/10 12:01:51;;;;;;;4.60;4.18;;;;;;;24.66;41.25;99128.78;5002800;28;20034;-62